sensor_id;sensor_type;location;lat;lon;timestamp;pressure;altitude;pressure_sealevel;temperature;humidity
43298;BME280;28892;55.640;37.532;2022-09-13T00:00:52;98801.97;;;12.08;53.48
43298;BME280;28892;55.640;37.532;2022-09-13T00:03:19;98800.13;;;12.01;53.67
43298;BME280;28892;55.640;37.532;2022-09-13T00:05:45;98792.00;;;12.03;53.34
43298;BME280;28892;55.640;37.532;2022-09-13T00:08:11;98785.66;;;12.04;53.34
43298;BME280;28892;55.640;37.532;2022-09-13T00:10:38;98788.88;;;11.99;53.20
43298;BME280;28892;55.640;37.532;2022-09-13T00:13:06;98786.41;;;11.91;53.58
43298;BME280;28892;55.640;37.532;2022-09-13T00:15:33;98782.53;;;11.94;53.64
43298;BME280;28892;55.640;37.532;2022-09-13T00:17:58;98785.97;;;11.87;53.60
43298;BME280;28892;55.640;37.532;2022-09-13T00:20:24;98780.25;;;11.97;53.66
43298;BME280;28892;55.640;37.532;2022-09-13T00:22:50;98777.41;;;11.85;53.63
43298;BME280;28892;55.640;37.532;2022-09-13T00:25:16;98785.19;;;11.87;53.94
43298;BME280;28892;55.640;37.532;2022-09-13T00:27:42;98778.19;;;11.86;53.73
43298;BME280;28892;55.640;37.532;2022-09-13T00:30:10;98775.53;;;11.86;53.95
43298;BME280;28892;55.640;37.532;2022-09-13T00:32:36;98772.28;;;11.91;53.79
43298;BME280;28892;55.640;37.532;2022-09-13T00:35:03;98768.22;;;11.88;53.73
43298;BME280;28892;55.640;37.532;2022-09-13T00:37:30;98775.34;;;11.81;54.02
43298;BME280;28892;55.640;37.532;2022-09-13T00:39:58;98772.88;;;11.79;54.27
43298;BME280;28892;55.640;37.532;2022-09-13T00:42:28;98780.25;;;11.84;53.97
43298;BME280;28892;55.640;37.532;2022-09-13T00:50:06;98770.63;;;11.83;54.14
43298;BME280;28892;55.640;37.532;2022-09-13T00:52:33;98776.22;;;12.15;53.11
43298;BME280;28892;55.640;37.532;2022-09-13T00:55:06;98770.03;;;11.87;53.79
43298;BME280;28892;55.640;37.532;2022-09-13T00:57:34;98780.81;;;11.72;53.99
43298;BME280;28892;55.640;37.532;2022-09-13T01:00:12;98779.44;;;11.77;54.56
43298;BME280;28892;55.640;37.532;2022-09-13T01:02:57;98775.31;;;11.74;54.05
43298;BME280;28892;55.640;37.532;2022-09-13T01:05:29;98780.81;;;11.66;54.80
43298;BME280;28892;55.640;37.532;2022-09-13T01:07:58;98773.69;;;11.66;54.38
43298;BME280;28892;55.640;37.532;2022-09-13T01:10:24;98777.53;;;11.64;54.51
43298;BME280;28892;55.640;37.532;2022-09-13T01:13:03;98776.97;;;11.75;54.55
43298;BME280;28892;55.640;37.532;2022-09-13T01:15:36;98771.03;;;11.66;54.64
43298;BME280;28892;55.640;37.532;2022-09-13T01:18:02;98769.97;;;11.60;54.60
43298;BME280;28892;55.640;37.532;2022-09-13T01:29:03;98768.16;;;11.68;54.69
43298;BME280;28892;55.640;37.532;2022-09-13T01:45:37;98762.59;;;11.49;54.88
43298;BME280;28892;55.640;37.532;2022-09-13T01:48:16;98759.28;;;11.47;55.41
43298;BME280;28892;55.640;37.532;2022-09-13T01:51:09;98760.75;;;11.50;55.06
43298;BME280;28892;55.640;37.532;2022-09-13T01:56:17;98755.38;;;11.29;55.83
43298;BME280;28892;55.640;37.532;2022-09-13T01:58:58;98752.50;;;11.38;55.43
43298;BME280;28892;55.640;37.532;2022-09-13T02:01:46;98758.50;;;11.46;55.21
43298;BME280;28892;55.640;37.532;2022-09-13T02:04:20;98753.53;;;11.37;55.16
43298;BME280;28892;55.640;37.532;2022-09-13T02:07:04;98751.31;;;11.47;54.89
43298;BME280;28892;55.640;37.532;2022-09-13T02:09:36;98748.59;;;11.27;55.49
43298;BME280;28892;55.640;37.532;2022-09-13T02:12:16;98748.00;;;11.31;55.54
43298;BME280;28892;55.640;37.532;2022-09-13T02:14:55;98740.03;;;11.25;55.54
43298;BME280;28892;55.640;37.532;2022-09-13T02:17:26;98736.53;;;11.24;55.45
43298;BME280;28892;55.640;37.532;2022-09-13T02:19:57;98745.75;;;11.22;55.42
43298;BME280;28892;55.640;37.532;2022-09-13T02:22:30;98746.13;;;11.25;55.39
43298;BME280;28892;55.640;37.532;2022-09-13T02:25:04;98748.59;;;11.20;55.86
43298;BME280;28892;55.640;37.532;2022-09-13T02:27:31;98750.13;;;11.56;54.75
43298;BME280;28892;55.640;37.532;2022-09-13T02:30:01;98746.97;;;11.26;55.40
43298;BME280;28892;55.640;37.532;2022-09-13T02:32:37;98745.75;;;11.22;55.68
43298;BME280;28892;55.640;37.532;2022-09-13T02:35:12;98742.22;;;11.08;56.11
43298;BME280;28892;55.640;37.532;2022-09-13T02:37:42;98736.66;;;11.02;55.83
43298;BME280;28892;55.640;37.532;2022-09-13T02:40:14;98744.03;;;11.07;56.33
43298;BME280;28892;55.640;37.532;2022-09-13T02:42:57;98740.56;;;11.07;56.03
43298;BME280;28892;55.640;37.532;2022-09-13T02:45:30;98730.53;;;11.02;56.15
43298;BME280;28892;55.640;37.532;2022-09-13T02:48:15;98735.25;;;11.07;55.89
43298;BME280;28892;55.640;37.532;2022-09-13T02:56:02;98734.03;;;11.09;55.78
43298;BME280;28892;55.640;37.532;2022-09-13T02:58:48;98724.84;;;11.12;56.02
43298;BME280;28892;55.640;37.532;2022-09-13T03:01:17;98724.41;;;11.01;55.59
43298;BME280;28892;55.640;37.532;2022-09-13T03:03:42;98717.19;;;10.88;56.09
43298;BME280;28892;55.640;37.532;2022-09-13T03:06:09;98720.88;;;10.94;56.26
43298;BME280;28892;55.640;37.532;2022-09-13T03:08:36;98721.50;;;10.89;56.09
43298;BME280;28892;55.640;37.532;2022-09-13T03:16:36;98719.25;;;10.93;56.30
43298;BME280;28892;55.640;37.532;2022-09-13T03:19:47;98723.91;;;10.84;56.24
43298;BME280;28892;55.640;37.532;2022-09-13T03:27:10;98716.13;;;10.83;56.68
43298;BME280;28892;55.640;37.532;2022-09-13T03:32:50;98711.66;;;10.83;57.07
43298;BME280;28892;55.640;37.532;2022-09-13T03:35:28;98718.16;;;10.81;56.90
43298;BME280;28892;55.640;37.532;2022-09-13T03:40:39;98721.22;;;10.78;57.33
43298;BME280;28892;55.640;37.532;2022-09-13T03:43:18;98718.16;;;10.81;56.70
43298;BME280;28892;55.640;37.532;2022-09-13T03:45:48;98718.13;;;10.74;56.87
43298;BME280;28892;55.640;37.532;2022-09-13T03:48:16;98718.97;;;10.74;56.89
43298;BME280;28892;55.640;37.532;2022-09-13T03:50:45;98717.34;;;10.73;57.00
43298;BME280;28892;55.640;37.532;2022-09-13T03:53:15;98701.19;;;10.75;56.92
43298;BME280;28892;55.640;37.532;2022-09-13T03:55:46;98699.38;;;10.75;57.01
43298;BME280;28892;55.640;37.532;2022-09-13T03:58:17;98706.25;;;10.63;57.06
43298;BME280;28892;55.640;37.532;2022-09-13T04:00:44;98713.97;;;10.58;57.34
43298;BME280;28892;55.640;37.532;2022-09-13T04:03:10;98710.09;;;10.60;57.18
43298;BME280;28892;55.640;37.532;2022-09-13T04:05:36;98705.00;;;10.59;57.29
43298;BME280;28892;55.640;37.532;2022-09-13T04:08:03;98712.41;;;10.70;57.58
43298;BME280;28892;55.640;37.532;2022-09-13T04:10:34;98704.28;;;10.79;56.96
43298;BME280;28892;55.640;37.532;2022-09-13T04:13:00;98703.66;;;10.76;57.16
43298;BME280;28892;55.640;37.532;2022-09-13T04:15:29;98704.91;;;10.81;57.20
43298;BME280;28892;55.640;37.532;2022-09-13T04:17:55;98704.09;;;10.80;57.51
43298;BME280;28892;55.640;37.532;2022-09-13T04:20:21;98706.66;;;11.02;56.60
43298;BME280;28892;55.640;37.532;2022-09-13T04:22:53;98707.25;;;10.97;56.29
43298;BME280;28892;55.640;37.532;2022-09-13T04:25:20;98704.94;;;10.87;56.68
43298;BME280;28892;55.640;37.532;2022-09-13T04:27:46;98701.50;;;10.94;56.62
43298;BME280;28892;55.640;37.532;2022-09-13T04:30:12;98708.03;;;10.91;56.47
43298;BME280;28892;55.640;37.532;2022-09-13T04:32:38;98712.72;;;10.89;56.76
43298;BME280;28892;55.640;37.532;2022-09-13T04:35:04;98715.38;;;10.89;56.47
43298;BME280;28892;55.640;37.532;2022-09-13T04:37:33;98711.50;;;10.92;56.41
43298;BME280;28892;55.640;37.532;2022-09-13T04:39:59;98718.44;;;10.93;56.38
43298;BME280;28892;55.640;37.532;2022-09-13T04:42:24;98708.13;;;11.11;55.97
43298;BME280;28892;55.640;37.532;2022-09-13T04:44:50;98708.88;;;10.98;56.40
43298;BME280;28892;55.640;37.532;2022-09-13T04:47:15;98714.19;;;10.98;56.28
43298;BME280;28892;55.640;37.532;2022-09-13T04:49:41;98716.59;;;10.93;56.50
43298;BME280;28892;55.640;37.532;2022-09-13T04:52:07;98704.81;;;11.02;56.55
43298;BME280;28892;55.640;37.532;2022-09-13T04:54:32;98710.69;;;10.98;56.73
43298;BME280;28892;55.640;37.532;2022-09-13T04:56:58;98718.69;;;11.04;56.41
43298;BME280;28892;55.640;37.532;2022-09-13T04:59:24;98712.59;;;11.04;56.66
43298;BME280;28892;55.640;37.532;2022-09-13T05:01:50;98705.69;;;11.16;55.94
43298;BME280;28892;55.640;37.532;2022-09-13T05:04:15;98711.59;;;11.12;56.02
43298;BME280;28892;55.640;37.532;2022-09-13T05:06:41;98718.75;;;11.11;56.28
43298;BME280;28892;55.640;37.532;2022-09-13T05:09:11;98724.84;;;11.12;56.52
43298;BME280;28892;55.640;37.532;2022-09-13T05:11:37;98725.69;;;11.12;56.17
43298;BME280;28892;55.640;37.532;2022-09-13T05:14:03;98723.66;;;11.14;56.71
43298;BME280;28892;55.640;37.532;2022-09-13T05:16:31;98726.94;;;11.23;56.07
43298;BME280;28892;55.640;37.532;2022-09-13T05:18:57;98724.06;;;11.18;56.38
43298;BME280;28892;55.640;37.532;2022-09-13T05:21:24;98726.50;;;11.20;56.20
43298;BME280;28892;55.640;37.532;2022-09-13T05:23:50;98723.28;;;11.24;56.13
43298;BME280;28892;55.640;37.532;2022-09-13T05:26:17;98721.59;;;11.10;56.32
43298;BME280;28892;55.640;37.532;2022-09-13T05:28:42;98719.34;;;11.07;56.71
43298;BME280;28892;55.640;37.532;2022-09-13T05:33:39;98726.09;;;11.16;56.64
43298;BME280;28892;55.640;37.532;2022-09-13T05:36:05;98732.88;;;11.25;56.40
43298;BME280;28892;55.640;37.532;2022-09-13T05:38:31;98736.34;;;11.26;56.22
43298;BME280;28892;55.640;37.532;2022-09-13T05:41:01;98724.50;;;11.22;56.51
43298;BME280;28892;55.640;37.532;2022-09-13T05:43:30;98726.94;;;11.23;56.43
43298;BME280;28892;55.640;37.532;2022-09-13T05:46:16;98730.06;;;11.40;56.70
43298;BME280;28892;55.640;37.532;2022-09-13T05:48:44;98732.69;;;11.27;56.60
43298;BME280;28892;55.640;37.532;2022-09-13T05:51:13;98724.72;;;11.34;56.49
43298;BME280;28892;55.640;37.532;2022-09-13T05:53:40;98732.28;;;11.37;56.13
43298;BME280;28892;55.640;37.532;2022-09-13T05:56:08;98725.38;;;11.42;55.49
43298;BME280;28892;55.640;37.532;2022-09-13T05:58:38;98725.63;;;11.54;55.43
43298;BME280;28892;55.640;37.532;2022-09-13T06:01:04;98727.63;;;11.39;55.74
43298;BME280;28892;55.640;37.532;2022-09-13T06:03:30;98720.66;;;11.38;55.84
43298;BME280;28892;55.640;37.532;2022-09-13T06:05:56;98719.88;;;11.44;55.62
43298;BME280;28892;55.640;37.532;2022-09-13T06:08:27;98725.00;;;11.45;55.69
43298;BME280;28892;55.640;37.532;2022-09-13T06:10:55;98723.13;;;11.46;55.25
43298;BME280;28892;55.640;37.532;2022-09-13T06:13:21;98723.75;;;11.48;55.20
43298;BME280;28892;55.640;37.532;2022-09-13T06:15:47;98727.22;;;11.42;55.70
43298;BME280;28892;55.640;37.532;2022-09-13T06:18:12;98728.44;;;11.46;55.33
43298;BME280;28892;55.640;37.532;2022-09-13T06:20:38;98716.41;;;11.50;55.55
43298;BME280;28892;55.640;37.532;2022-09-13T06:23:03;98716.00;;;11.46;55.26
43298;BME280;28892;55.640;37.532;2022-09-13T06:25:29;98720.91;;;11.50;55.49
43298;BME280;28892;55.640;37.532;2022-09-13T06:27:55;98716.00;;;11.53;55.25
43298;BME280;28892;55.640;37.532;2022-09-13T06:30:20;98727.66;;;11.59;55.36
43298;BME280;28892;55.640;37.532;2022-09-13T06:32:46;98724.59;;;11.55;55.45
43298;BME280;28892;55.640;37.532;2022-09-13T06:35:12;98716.25;;;11.65;55.30
43298;BME280;28892;55.640;37.532;2022-09-13T06:37:37;98717.91;;;11.73;54.50
43298;BME280;28892;55.640;37.532;2022-09-13T06:40:03;98718.91;;;11.65;55.09
43298;BME280;28892;55.640;37.532;2022-09-13T06:42:33;98724.84;;;11.67;55.00
43298;BME280;28892;55.640;37.532;2022-09-13T06:44:58;98707.03;;;11.68;54.75
43298;BME280;28892;55.640;37.532;2022-09-13T06:47:24;98711.16;;;11.84;54.32
43298;BME280;28892;55.640;37.532;2022-09-13T06:49:50;98706.84;;;11.76;54.52
43298;BME280;28892;55.640;37.532;2022-09-13T06:52:15;98700.09;;;11.73;54.32
43298;BME280;28892;55.640;37.532;2022-09-13T06:54:41;98700.31;;;11.72;54.66
43298;BME280;28892;55.640;37.532;2022-09-13T06:57:07;98698.28;;;11.81;54.52
43298;BME280;28892;55.640;37.532;2022-09-13T06:59:33;98706.25;;;11.87;54.15
43298;BME280;28892;55.640;37.532;2022-09-13T07:01:59;98708.31;;;11.85;54.32
43298;BME280;28892;55.640;37.532;2022-09-13T07:04:25;98697.88;;;11.91;54.05
43298;BME280;28892;55.640;37.532;2022-09-13T07:06:50;98702.19;;;11.98;54.20
43298;BME280;28892;55.640;37.532;2022-09-13T07:09:20;98704.66;;;12.13;53.99
43298;BME280;28892;55.640;37.532;2022-09-13T07:11:48;98693.22;;;12.13;53.62
43298;BME280;28892;55.640;37.532;2022-09-13T07:14:19;98693.41;;;12.05;54.00
43298;BME280;28892;55.640;37.532;2022-09-13T07:16:45;98684.19;;;12.00;53.68
43298;BME280;28892;55.640;37.532;2022-09-13T07:19:14;98692.59;;;12.18;53.54
43298;BME280;28892;55.640;37.532;2022-09-13T07:21:40;98687.09;;;12.26;53.21
43298;BME280;28892;55.640;37.532;2022-09-13T07:24:06;98684.41;;;12.39;52.88
43298;BME280;28892;55.640;37.532;2022-09-13T07:26:32;98681.94;;;12.38;52.63
43298;BME280;28892;55.640;37.532;2022-09-13T07:28:59;98683.53;;;12.59;52.78
43298;BME280;28892;55.640;37.532;2022-09-13T07:31:28;98677.56;;;12.70;52.50
43298;BME280;28892;55.640;37.532;2022-09-13T07:33:59;98672.63;;;12.81;52.49
43298;BME280;28892;55.640;37.532;2022-09-13T07:36:26;98675.41;;;12.99;51.80
43298;BME280;28892;55.640;37.532;2022-09-13T07:38:52;98669.41;;;13.11;51.43
43298;BME280;28892;55.640;37.532;2022-09-13T07:41:20;98662.63;;;13.22;51.47
43298;BME280;28892;55.640;37.532;2022-09-13T07:43:46;98673.94;;;13.10;51.49
43298;BME280;28892;55.640;37.532;2022-09-13T07:46:14;98668.34;;;13.25;51.25
43298;BME280;28892;55.640;37.532;2022-09-13T07:48:41;98667.91;;;13.28;50.78
43298;BME280;28892;55.640;37.532;2022-09-13T07:51:16;98666.03;;;13.36;50.57
43298;BME280;28892;55.640;37.532;2022-09-13T07:53:43;98667.31;;;13.26;50.53
43298;BME280;28892;55.640;37.532;2022-09-13T07:56:17;98663.53;;;13.41;50.25
43298;BME280;28892;55.640;37.532;2022-09-13T07:58:45;98660.66;;;13.43;50.36
43298;BME280;28892;55.640;37.532;2022-09-13T08:01:15;98654.72;;;13.47;49.89
43298;BME280;28892;55.640;37.532;2022-09-13T08:03:41;98654.59;;;13.67;49.24
43298;BME280;28892;55.640;37.532;2022-09-13T08:06:07;98662.41;;;13.62;49.04
43298;BME280;28892;55.640;37.532;2022-09-13T08:08:34;98648.34;;;13.80;49.04
43298;BME280;28892;55.640;37.532;2022-09-13T08:11:02;98657.31;;;13.86;48.88
43298;BME280;28892;55.640;37.532;2022-09-13T08:13:28;98650.66;;;14.21;48.26
43298;BME280;28892;55.640;37.532;2022-09-13T08:15:54;98645.56;;;14.38;47.74
43298;BME280;28892;55.640;37.532;2022-09-13T08:18:20;98645.06;;;14.66;46.60
43298;BME280;28892;55.640;37.532;2022-09-13T08:20:46;98642.47;;;14.97;46.12
43298;BME280;28892;55.640;37.532;2022-09-13T08:23:12;98648.91;;;15.39;45.00
43298;BME280;28892;55.640;37.532;2022-09-13T08:25:38;98645.06;;;15.34;45.22
43298;BME280;28892;55.640;37.532;2022-09-13T08:28:08;98647.13;;;15.32;45.58
43298;BME280;28892;55.640;37.532;2022-09-13T08:30:36;98650.22;;;15.48;45.46
43298;BME280;28892;55.640;37.532;2022-09-13T08:33:03;98640.25;;;15.67;45.20
43298;BME280;28892;55.640;37.532;2022-09-13T08:35:30;98634.19;;;15.60;44.48
43298;BME280;28892;55.640;37.532;2022-09-13T08:37:56;98630.03;;;15.64;44.67
43298;BME280;28892;55.640;37.532;2022-09-13T08:40:23;98629.41;;;15.92;44.07
43298;BME280;28892;55.640;37.532;2022-09-13T08:43:02;98636.94;;;16.19;43.05
43298;BME280;28892;55.640;37.532;2022-09-13T08:45:30;98621.34;;;16.40;42.59
43298;BME280;28892;55.640;37.532;2022-09-13T08:48:01;98640.53;;;16.49;42.96
43298;BME280;28892;55.640;37.532;2022-09-13T08:50:29;98615.75;;;16.54;41.87
43298;BME280;28892;55.640;37.532;2022-09-13T08:53:21;98620.50;;;16.52;42.26
43298;BME280;28892;55.640;37.532;2022-09-13T09:07:10;98607.19;;;16.04;42.82
43298;BME280;28892;55.640;37.532;2022-09-13T09:10:15;98610.34;;;16.01;42.63
43298;BME280;28892;55.640;37.532;2022-09-13T09:12:45;98604.84;;;15.84;43.27
43298;BME280;28892;55.640;37.532;2022-09-13T09:15:25;98608.06;;;15.62;43.85
43298;BME280;28892;55.640;37.532;2022-09-13T09:18:08;98600.38;;;15.65;43.83
43298;BME280;28892;55.640;37.532;2022-09-13T09:20:48;98605.16;;;15.52;44.17
43298;BME280;28892;55.640;37.532;2022-09-13T09:23:24;98596.66;;;15.55;44.18
43298;BME280;28892;55.640;37.532;2022-09-13T09:25:57;98596.06;;;15.53;43.84
43298;BME280;28892;55.640;37.532;2022-09-13T09:28:25;98585.25;;;15.35;43.94
43298;BME280;28892;55.640;37.532;2022-09-13T09:31:08;98595.94;;;15.47;44.59
43298;BME280;28892;55.640;37.532;2022-09-13T09:36:50;98586.91;;;15.60;43.84
43298;BME280;28892;55.640;37.532;2022-09-13T09:39:17;98577.81;;;15.49;43.26
43298;BME280;28892;55.640;37.532;2022-09-13T09:41:43;98577.91;;;15.43;43.74
43298;BME280;28892;55.640;37.532;2022-09-13T09:44:18;98567.59;;;15.46;43.72
43298;BME280;28892;55.640;37.532;2022-09-13T09:47:01;98577.81;;;15.49;44.23
43298;BME280;28892;55.640;37.532;2022-09-13T09:49:38;98564.25;;;15.63;43.66
43298;BME280;28892;55.640;37.532;2022-09-13T09:52:32;98572.72;;;15.48;43.87
43298;BME280;28892;55.640;37.532;2022-09-13T09:55:06;98570.00;;;15.36;44.45
43298;BME280;28892;55.640;37.532;2022-09-13T09:58:00;98572.94;;;15.46;44.55
43298;BME280;28892;55.640;37.532;2022-09-13T10:00:29;98574.81;;;15.46;43.93
43298;BME280;28892;55.640;37.532;2022-09-13T10:02:58;98565.16;;;15.45;43.37
43298;BME280;28892;55.640;37.532;2022-09-13T10:05:26;98563.88;;;15.35;42.74
43298;BME280;28892;55.640;37.532;2022-09-13T10:07:58;98569.75;;;15.26;43.22
43298;BME280;28892;55.640;37.532;2022-09-13T10:10:32;98561.50;;;15.27;43.64
43298;BME280;28892;55.640;37.532;2022-09-13T10:13:01;98566.03;;;15.27;42.62
43298;BME280;28892;55.640;37.532;2022-09-13T10:15:31;98557.59;;;15.30;42.29
43298;BME280;28892;55.640;37.532;2022-09-13T10:18:20;98569.47;;;15.46;41.85
43298;BME280;28892;55.640;37.532;2022-09-13T10:23:36;98562.63;;;15.07;42.23
43298;BME280;28892;55.640;37.532;2022-09-13T10:26:24;98565.38;;;15.01;41.52
43298;BME280;28892;55.640;37.532;2022-09-13T10:31:20;98557.44;;;15.13;41.71
43298;BME280;28892;55.640;37.532;2022-09-13T10:33:57;98554.50;;;15.14;42.04
43298;BME280;28892;55.640;37.532;2022-09-13T10:36:29;98543.56;;;15.04;42.26
43298;BME280;28892;55.640;37.532;2022-09-13T10:39:19;98554.22;;;14.92;42.21
43298;BME280;28892;55.640;37.532;2022-09-13T10:41:53;98530.94;;;15.11;42.16
43298;BME280;28892;55.640;37.532;2022-09-13T10:44:51;98530.22;;;15.04;42.17
43298;BME280;28892;55.640;37.532;2022-09-13T10:47:23;98502.03;;;15.08;42.54
43298;BME280;28892;55.640;37.532;2022-09-13T10:49:52;98535.91;;;14.96;42.57
43298;BME280;28892;55.640;37.532;2022-09-13T10:52:32;98526.75;;;15.03;42.71
43298;BME280;28892;55.640;37.532;2022-09-13T10:57:44;98525.44;;;14.94;42.93
43298;BME280;28892;55.640;37.532;2022-09-13T11:00:19;98527.19;;;15.00;43.10
43298;BME280;28892;55.640;37.532;2022-09-13T11:39:31;98490.03;;;14.99;42.55
43298;BME280;28892;55.640;37.532;2022-09-13T11:50:36;98490.84;;;14.99;41.73
43298;BME280;28892;55.640;37.532;2022-09-13T11:55:59;98474.59;;;15.01;42.14
43298;BME280;28892;55.640;37.532;2022-09-13T11:58:49;98477.44;;;15.30;41.38
43298;BME280;28892;55.640;37.532;2022-09-13T12:01:20;98474.41;;;15.26;41.39
43298;BME280;28892;55.640;37.532;2022-09-13T12:04:08;98480.19;;;15.11;41.70
43298;BME280;28892;55.640;37.532;2022-09-13T12:06:45;98468.69;;;14.99;41.95
43298;BME280;28892;55.640;37.532;2022-09-13T12:09:25;98472.16;;;14.99;41.99
43298;BME280;28892;55.640;37.532;2022-09-13T12:12:03;98472.97;;;15.12;41.88
43298;BME280;28892;55.640;37.532;2022-09-13T12:14:50;98464.41;;;15.21;41.66
43298;BME280;28892;55.640;37.532;2022-09-13T12:20:02;98457.31;;;15.03;41.94
43298;BME280;28892;55.640;37.532;2022-09-13T12:22:33;98451.75;;;15.17;42.19
43298;BME280;28892;55.640;37.532;2022-09-13T12:25:10;98455.56;;;15.09;42.08
43298;BME280;28892;55.640;37.532;2022-09-13T12:28:05;98438.84;;;15.26;42.04
43298;BME280;28892;55.640;37.532;2022-09-13T12:30:55;98446.19;;;15.18;41.93
43298;BME280;28892;55.640;37.532;2022-09-13T12:33:23;98442.69;;;15.18;41.95
43298;BME280;28892;55.640;37.532;2022-09-13T13:01:16;98420.03;;;15.20;41.74
43298;BME280;28892;55.640;37.532;2022-09-13T13:06:38;98415.97;;;15.30;41.48
43298;BME280;28892;55.640;37.532;2022-09-13T13:09:41;98418.41;;;15.19;41.86
43298;BME280;28892;55.640;37.532;2022-09-13T13:14:56;98414.09;;;15.06;41.79
43298;BME280;28892;55.640;37.532;2022-09-13T13:17:44;98416.44;;;15.15;42.02
43298;BME280;28892;55.640;37.532;2022-09-13T13:23:27;98407.72;;;15.19;41.92
43298;BME280;28892;55.640;37.532;2022-09-13T13:42:01;98384.94;;;15.05;41.75
43298;BME280;28892;55.640;37.532;2022-09-13T13:57:23;98384.63;;;15.01;41.76
43298;BME280;28892;55.640;37.532;2022-09-13T13:59:53;98379.16;;;14.96;42.00
43298;BME280;28892;55.640;37.532;2022-09-13T14:02:29;98380.66;;;15.04;41.56
43298;BME280;28892;55.640;37.532;2022-09-13T14:06:04;98382.28;;;15.05;41.92
43298;BME280;28892;55.640;37.532;2022-09-13T14:08:31;98379.63;;;15.17;41.73
43298;BME280;28892;55.640;37.532;2022-09-13T14:21:39;98394.03;;;14.92;42.47
43298;BME280;28892;55.640;37.532;2022-09-13T14:26:40;98389.72;;;14.91;42.69
43298;BME280;28892;55.640;37.532;2022-09-13T14:29:07;98391.00;;;14.88;42.95
43298;BME280;28892;55.640;37.532;2022-09-13T14:31:33;98392.38;;;14.79;42.95
43298;BME280;28892;55.640;37.532;2022-09-13T14:34:01;98385.88;;;14.75;43.54
43298;BME280;28892;55.640;37.532;2022-09-13T14:36:27;98378.34;;;14.96;42.66
43298;BME280;28892;55.640;37.532;2022-09-13T14:38:58;98381.94;;;14.89;42.92
43298;BME280;28892;55.640;37.532;2022-09-13T14:41:33;98379.50;;;14.88;43.09
43298;BME280;28892;55.640;37.532;2022-09-13T14:44:19;98379.13;;;14.84;43.16
43298;BME280;28892;55.640;37.532;2022-09-13T14:46:50;98389.13;;;14.77;43.23
43298;BME280;28892;55.640;37.532;2022-09-13T14:49:24;98382.28;;;14.81;42.90
43298;BME280;28892;55.640;37.532;2022-09-13T14:51:55;98383.03;;;14.70;43.50
43298;BME280;28892;55.640;37.532;2022-09-13T14:56:55;98385.44;;;14.59;43.91
43298;BME280;28892;55.640;37.532;2022-09-13T15:01:51;98382.19;;;14.57;44.00
43298;BME280;28892;55.640;37.532;2022-09-13T15:04:18;98374.66;;;14.54;44.05
43298;BME280;28892;55.640;37.532;2022-09-13T15:06:44;98367.56;;;14.48;44.08
43298;BME280;28892;55.640;37.532;2022-09-13T15:11:57;98365.97;;;14.59;44.31
43298;BME280;28892;55.640;37.532;2022-09-13T15:14:32;98359.91;;;14.51;44.77
43298;BME280;28892;55.640;37.532;2022-09-13T15:17:09;98350.91;;;14.64;44.51
43298;BME280;28892;55.640;37.532;2022-09-13T15:19:39;98357.09;;;14.46;44.84
43298;BME280;28892;55.640;37.532;2022-09-13T15:22:13;98347.16;;;14.53;44.68
43298;BME280;28892;55.640;37.532;2022-09-13T15:24:43;98353.78;;;14.63;44.61
43298;BME280;28892;55.640;37.532;2022-09-13T15:27:19;98354.38;;;14.53;44.84
43298;BME280;28892;55.640;37.532;2022-09-13T15:29:55;98358.97;;;14.46;44.96
43298;BME280;28892;55.640;37.532;2022-09-13T15:32:34;98344.00;;;14.45;44.81
43298;BME280;28892;55.640;37.532;2022-09-13T15:35:17;98344.50;;;14.53;44.42
43298;BME280;28892;55.640;37.532;2022-09-13T15:37:43;98341.56;;;14.43;44.71
43298;BME280;28892;55.640;37.532;2022-09-13T15:40:20;98345.06;;;14.56;44.80
43298;BME280;28892;55.640;37.532;2022-09-13T15:42:51;98335.00;;;14.58;44.59
43298;BME280;28892;55.640;37.532;2022-09-13T15:45:18;98344.81;;;14.45;45.29
43298;BME280;28892;55.640;37.532;2022-09-13T15:47:49;98339.38;;;14.40;45.56
43298;BME280;28892;55.640;37.532;2022-09-13T15:50:22;98348.53;;;14.44;45.30
43298;BME280;28892;55.640;37.532;2022-09-13T15:52:48;98339.31;;;14.28;46.03
43298;BME280;28892;55.640;37.532;2022-09-13T15:55:13;98335.44;;;14.43;45.59
43298;BME280;28892;55.640;37.532;2022-09-13T15:57:42;98338.88;;;14.31;45.97
43298;BME280;28892;55.640;37.532;2022-09-13T16:00:20;98341.03;;;14.22;46.40
43298;BME280;28892;55.640;37.532;2022-09-13T16:02:46;98337.69;;;14.27;47.32
43298;BME280;28892;55.640;37.532;2022-09-13T16:05:12;98325.41;;;14.26;46.80
43298;BME280;28892;55.640;37.532;2022-09-13T16:07:39;98333.41;;;14.26;47.35
43298;BME280;28892;55.640;37.532;2022-09-13T16:10:19;98332.81;;;14.24;48.13
43298;BME280;28892;55.640;37.532;2022-09-13T16:12:46;98332.47;;;14.20;48.45
43298;BME280;28892;55.640;37.532;2022-09-13T16:15:12;98330.38;;;14.22;48.39
43298;BME280;28892;55.640;37.532;2022-09-13T16:17:39;98314.63;;;14.21;48.78
43298;BME280;28892;55.640;37.532;2022-09-13T16:20:05;98340.25;;;13.91;50.47
43298;BME280;28892;55.640;37.532;2022-09-13T16:22:33;98332.91;;;13.87;50.74
43298;BME280;28892;55.640;37.532;2022-09-13T16:24:59;98315.56;;;13.96;49.89
43298;BME280;28892;55.640;37.532;2022-09-13T16:27:25;98333.63;;;13.82;51.08
43298;BME280;28892;55.640;37.532;2022-09-13T16:29:52;98329.72;;;13.66;51.64
43298;BME280;28892;55.640;37.532;2022-09-13T16:32:18;98321.09;;;13.64;52.00
43298;BME280;28892;55.640;37.532;2022-09-13T16:34:44;98318.81;;;13.49;51.71
43298;BME280;28892;55.640;37.532;2022-09-13T16:37:13;98322.91;;;13.51;52.34
43298;BME280;28892;55.640;37.532;2022-09-13T16:39:39;98323.34;;;13.48;52.36
43298;BME280;28892;55.640;37.532;2022-09-13T16:42:05;98324.16;;;13.49;52.36